createdAt,value
2022-08-01T00:00:27.085Z,4.47
2022-08-01T00:01:28.895Z,3.72
2022-08-01T00:02:32.025Z,3.90
2022-08-01T00:03:34.141Z,2.88
2022-08-01T00:04:35.883Z,2.72
2022-08-01T00:05:37.848Z,5.35
2022-08-01T00:06:39.615Z,3.03
2022-08-01T00:07:41.445Z,2.83
2022-08-01T00:08:43.165Z,3.28
2022-08-01T00:09:44.888Z,4.90
2022-08-01T00:10:46.785Z,2.88
2022-08-01T00:11:48.828Z,4.63
2022-08-01T00:13:01.518Z,4.05
2022-08-01T00:14:03.449Z,3.08
2022-08-01T00:15:07.400Z,3.10
2022-08-01T00:16:09.556Z,4.35
2022-08-01T00:17:11.294Z,3.42
2022-08-01T00:18:13.008Z,2.50
2022-08-01T00:19:14.798Z,6.30
2022-08-01T00:20:16.610Z,4.38
2022-08-01T00:21:18.883Z,3.10
2022-08-01T00:22:20.711Z,5.07
2022-08-01T00:23:22.441Z,6.38
2022-08-01T00:24:24.300Z,5.80
2022-08-01T00:25:34.040Z,4.18
2022-08-01T00:26:36.421Z,4.18
2022-08-01T00:27:38.197Z,3.22
2022-08-01T00:28:40.158Z,3.95
2022-08-01T00:30:11.811Z,3.60
2022-08-01T00:31:04.148Z,2.78
2022-08-01T00:32:06.622Z,5.97
2022-08-01T00:33:08.558Z,4.65
2022-08-01T00:34:10.344Z,3.42
2022-08-01T00:35:12.730Z,2.58
2022-08-01T00:36:14.518Z,3.70
2022-08-01T00:37:16.815Z,5.63
2022-08-01T00:38:18.756Z,5.53
2022-08-01T00:39:20.484Z,3.92
2022-08-01T00:40:22.372Z,4.22
2022-08-01T00:41:24.536Z,4.55
2022-08-01T00:42:26.417Z,3.72
2022-08-01T00:43:28.196Z,7.72
2022-08-01T00:44:29.972Z,3.55
2022-08-01T00:45:31.671Z,4.88
2022-08-01T00:46:34.249Z,3.78
2022-08-01T00:47:35.998Z,4.07
2022-08-01T00:48:37.816Z,3.28
2022-08-01T00:49:39.906Z,2.75
2022-08-01T00:50:41.921Z,3.90
2022-08-01T00:51:44.016Z,3.17
2022-08-01T00:52:51.329Z,2.85
2022-08-01T00:53:54.757Z,6.60
2022-08-01T00:54:56.925Z,2.97
2022-08-01T00:55:58.778Z,8.00
2022-08-01T00:57:01.170Z,6.00
2022-08-01T00:58:05.420Z,4.90
2022-08-01T00:59:09.053Z,4.88
2022-08-01T01:00:11.572Z,4.90
2022-08-01T01:01:14.410Z,5.68
2022-08-01T01:02:17.087Z,5.22
2022-08-01T01:03:19.216Z,4.90
2022-08-01T01:04:21.358Z,3.53
2022-08-01T01:05:23.163Z,4.68
2022-08-01T01:07:01.000Z,3.42
2022-08-01T01:08:05.966Z,5.18
2022-08-01T01:09:34.800Z,3.42
2022-08-01T01:10:58.956Z,5.55
2022-08-01T01:12:19.267Z,2.50
2022-08-01T01:13:35.546Z,2.40
2022-08-01T01:14:53.020Z,4.95
2022-08-01T01:16:01.092Z,4.88
2022-08-01T01:17:05.897Z,2.42
2022-08-01T01:18:10.578Z,4.72
2022-08-01T01:19:17.984Z,3.75
2022-08-01T01:20:25.388Z,3.53
2022-08-01T01:21:29.876Z,2.85
2022-08-01T01:22:40.839Z,7.88
2022-08-01T01:24:14.655Z,2.75
2022-08-01T01:25:19.518Z,3.53
2022-08-01T01:26:43.267Z,4.63
2022-08-01T01:27:58.648Z,4.60
2022-08-01T01:29:16.893Z,4.95
2022-08-01T01:30:19.176Z,4.20
2022-08-01T01:32:39.402Z,4.45
2022-08-01T01:33:45.294Z,4.30
2022-08-01T01:34:51.708Z,5.30
2022-08-01T01:36:00.179Z,3.80
2022-08-01T01:37:03.992Z,7.28
2022-08-01T01:38:11.624Z,6.50
2022-08-01T01:39:15.196Z,6.90
2022-08-01T01:40:18.744Z,6.38
2022-08-01T01:41:22.041Z,3.50
2022-08-01T01:42:27.855Z,6.15
2022-08-01T01:43:33.496Z,5.68
2022-08-01T01:44:37.304Z,3.88
2022-08-01T01:45:41.229Z,4.35
2022-08-01T01:46:44.386Z,4.32
2022-08-01T01:47:47.136Z,8.13
2022-08-01T01:48:49.662Z,5.38
2022-08-01T01:49:53.579Z,6.32
2022-08-01T01:50:57.827Z,5.70
2022-08-01T01:52:02.725Z,4.90
2022-08-01T01:53:06.935Z,7.32
2022-08-01T01:54:17.117Z,5.50
2022-08-01T01:55:22.118Z,5.55
2022-08-01T01:56:25.264Z,3.55
2022-08-01T01:57:28.496Z,5.65
2022-08-01T01:58:32.913Z,4.28
2022-08-01T01:59:37.609Z,4.00
2022-08-01T02:00:41.283Z,2.63
2022-08-01T02:02:05.429Z,7.10
2022-08-01T02:03:08.887Z,5.05
2022-08-01T02:04:11.757Z,3.90
2022-08-01T02:05:14.751Z,4.60
2022-08-01T02:06:17.601Z,3.40
2022-08-01T02:07:23.566Z,4.75
2022-08-01T02:08:26.579Z,6.90
2022-08-01T02:09:30.145Z,5.97
2022-08-01T02:10:33.667Z,5.03
2022-08-01T02:11:37.866Z,4.03
2022-08-01T02:13:01.896Z,3.40
2022-08-01T02:14:05.037Z,3.88
2022-08-01T02:15:07.948Z,4.07
2022-08-01T02:16:12.178Z,5.05
2022-08-01T02:17:18.322Z,5.05
2022-08-01T02:18:20.233Z,4.55
2022-08-01T02:19:26.340Z,3.55
2022-08-01T02:20:31.786Z,3.90
2022-08-01T02:21:50.264Z,4.85
2022-08-01T02:22:57.294Z,4.78
2022-08-01T02:24:09.431Z,6.57
2022-08-01T02:25:25.169Z,3.17
2022-08-01T02:26:28.362Z,4.82
2022-08-01T02:27:35.861Z,4.05
2022-08-01T02:28:43.073Z,4.47
2022-08-01T02:29:48.074Z,4.35
2022-08-01T02:30:51.039Z,3.58
2022-08-01T02:31:58.141Z,5.07
2022-08-01T02:33:16.299Z,2.85
2022-08-01T02:34:20.212Z,2.60
2022-08-01T02:35:27.508Z,5.72
2022-08-01T02:36:33.846Z,3.53
2022-08-01T02:37:41.635Z,5.05
2022-08-01T02:38:48.010Z,4.00
2022-08-01T02:39:53.499Z,3.53
2022-08-01T02:40:59.783Z,4.75
2022-08-01T02:42:07.501Z,3.70
2022-08-01T02:43:11.589Z,4.30
2022-08-01T02:44:28.025Z,3.20
2022-08-01T02:45:31.632Z,3.65
2022-08-01T02:46:48.564Z,3.40
2022-08-01T02:47:51.961Z,4.00
2022-08-01T02:48:57.454Z,2.90
2022-08-01T02:50:00.487Z,2.75
2022-08-01T02:51:05.012Z,5.43
2022-08-01T02:52:11.067Z,2.70
2022-08-01T02:53:14.669Z,4.05
2022-08-01T02:54:19.556Z,2.67
2022-08-01T02:55:21.809Z,4.07
2022-08-01T02:56:25.379Z,3.15
2022-08-01T02:57:33.557Z,3.05
2022-08-01T02:58:49.755Z,3.65
2022-08-01T02:59:54.016Z,3.15
2022-08-01T03:00:59.922Z,5.10
2022-08-01T03:02:05.808Z,2.80
2022-08-01T03:03:08.736Z,5.00
2022-08-01T03:04:12.125Z,4.22
2022-08-01T03:05:16.156Z,2.85
2022-08-01T03:06:18.873Z,3.10
2022-08-01T03:07:21.940Z,5.05
2022-08-01T03:08:25.297Z,3.13
2022-08-01T03:09:30.424Z,3.88
2022-08-01T03:10:34.825Z,2.22
2022-08-01T03:11:40.844Z,4.13
2022-08-01T03:12:44.703Z,2.03
2022-08-01T03:13:51.291Z,3.08
2022-08-01T03:14:56.514Z,5.20
2022-08-01T03:15:59.752Z,2.35
2022-08-01T03:17:03.050Z,2.38
2022-08-01T03:18:07.768Z,3.88
2022-08-01T03:19:12.439Z,4.47
2022-08-01T03:20:16.524Z,4.15
2022-08-01T03:21:20.878Z,2.75
2022-08-01T03:22:27.279Z,3.47
2022-08-01T03:23:38.022Z,2.65
2022-08-01T03:25:45.684Z,2.55
2022-08-01T03:26:48.314Z,5.55
2022-08-01T03:27:55.727Z,2.97
2022-08-01T03:29:03.139Z,4.53
2022-08-01T03:30:07.201Z,2.75
2022-08-01T03:31:10.372Z,2.33
2022-08-01T03:32:14.046Z,3.13
2022-08-01T03:33:15.808Z,4.88
2022-08-01T03:34:18.386Z,4.13
2022-08-01T03:35:21.588Z,5.63
2022-08-01T03:36:29.589Z,2.58
2022-08-01T03:37:54.350Z,3.50
2022-08-01T03:39:03.919Z,2.53
2022-08-01T03:40:42.015Z,2.30
2022-08-01T03:41:52.549Z,2.10
2022-08-01T03:43:03.505Z,3.40
2022-08-01T03:44:11.713Z,3.67
2022-08-01T03:45:20.399Z,2.17
2022-08-01T03:46:29.839Z,5.68
2022-08-01T03:47:34.739Z,4.57
2022-08-01T03:48:51.936Z,7.75
2022-08-01T03:49:57.150Z,3.72
2022-08-01T03:50:59.806Z,2.78
2022-08-01T03:52:08.345Z,2.97
2022-08-01T03:53:12.888Z,1.77
2022-08-01T03:54:17.122Z,1.50
2022-08-01T03:55:21.356Z,3.55
2022-08-01T03:56:25.483Z,2.28
2022-08-01T03:57:36.439Z,3.50
2022-08-01T03:58:41.488Z,1.67
2022-08-01T03:59:44.566Z,4.15
2022-08-01T04:00:47.307Z,1.92
2022-08-01T04:01:50.043Z,5.72
2022-08-01T04:02:53.464Z,2.45
2022-08-01T04:03:56.067Z,4.63
2022-08-01T04:04:57.901Z,2.67
2022-08-01T04:06:00.181Z,2.05
2022-08-01T04:07:07.565Z,3.30
2022-08-01T04:08:09.769Z,2.45
2022-08-01T04:09:13.870Z,1.25
2022-08-01T04:10:15.958Z,4.10
2022-08-01T04:11:17.833Z,1.92
2022-08-01T04:12:19.891Z,2.03
2022-08-01T04:13:21.769Z,3.47
2022-08-01T04:14:23.479Z,1.88
2022-08-01T04:15:25.525Z,2.22
2022-08-01T04:16:27.598Z,0.95
2022-08-01T04:17:29.429Z,0.75
2022-08-01T04:18:31.339Z,1.13
2022-08-01T04:19:33.104Z,1.70
2022-08-01T04:20:34.972Z,0.60
2022-08-01T04:21:38.800Z,0.70
2022-08-01T04:22:41.064Z,0.57
2022-08-01T04:23:45.994Z,1.98
2022-08-01T04:24:54.484Z,0.77
2022-08-01T04:26:00.732Z,0.60
2022-08-01T04:27:05.912Z,1.20
2022-08-01T04:28:12.170Z,5.45
2022-08-01T04:29:17.519Z,2.20
2022-08-01T04:30:30.716Z,1.33
2022-08-01T04:31:33.701Z,2.30
2022-08-01T04:32:38.901Z,2.83
2022-08-01T04:33:48.928Z,0.68
2022-08-01T04:34:51.998Z,1.08
2022-08-01T04:36:02.578Z,1.25
2022-08-01T04:37:08.716Z,1.65
2022-08-01T04:38:11.621Z,1.55
2022-08-01T04:39:14.493Z,1.50
2022-08-01T04:40:17.866Z,1.63
2022-08-01T04:41:21.291Z,0.85
2022-08-01T04:42:25.199Z,2.80
2022-08-01T04:43:32.932Z,1.27
2022-08-01T04:44:35.393Z,0.70
2022-08-01T04:45:37.932Z,1.98
2022-08-01T04:46:41.149Z,0.80
2022-08-01T04:47:44.212Z,2.20
2022-08-01T04:48:47.093Z,2.03
2022-08-01T04:49:49.514Z,1.63
2022-08-01T04:50:52.573Z,3.80
2022-08-01T04:51:58.714Z,0.95
2022-08-01T04:53:00.681Z,2.58
2022-08-01T04:54:02.816Z,3.53
2022-08-01T04:55:07.344Z,2.90
2022-08-01T04:56:09.752Z,2.05
2022-08-01T04:57:11.626Z,1.40
2022-08-01T04:58:18.319Z,3.60
2022-08-01T04:59:39.888Z,1.02
2022-08-01T05:00:41.971Z,1.17
2022-08-01T05:01:43.877Z,4.57
2022-08-01T05:02:46.153Z,2.15
2022-08-01T05:03:47.853Z,1.75
2022-08-01T05:04:50.781Z,2.10
2022-08-01T05:05:52.725Z,3.13
2022-08-01T05:06:54.607Z,2.30
2022-08-01T05:07:56.986Z,2.50
2022-08-01T05:08:59.087Z,1.08
2022-08-01T05:10:02.480Z,2.15
2022-08-01T05:11:07.439Z,0.70
2022-08-01T05:12:10.328Z,3.10
2022-08-01T05:13:12.181Z,1.13
2022-08-01T05:14:14.307Z,1.52
2022-08-01T05:15:17.043Z,1.15
2022-08-01T05:16:18.822Z,1.10
2022-08-01T05:17:20.646Z,1.60
2022-08-01T05:18:27.962Z,0.80
2022-08-01T05:19:35.087Z,1.10
2022-08-01T05:20:38.234Z,2.40
2022-08-01T05:21:40.231Z,0.88
2022-08-01T05:22:42.067Z,0.70
2022-08-01T05:23:44.141Z,0.95
2022-08-01T05:24:47.633Z,2.50
2022-08-01T05:25:56.720Z,1.63
2022-08-01T05:27:00.692Z,0.95
2022-08-01T05:28:02.531Z,1.45
2022-08-01T05:29:05.521Z,1.10
2022-08-01T05:30:10.614Z,1.50
2022-08-01T05:31:12.557Z,1.02
2022-08-01T05:32:14.299Z,2.78
2022-08-01T05:33:16.083Z,3.83
2022-08-01T05:34:18.671Z,3.67
2022-08-01T05:35:20.374Z,2.25
2022-08-01T05:36:22.174Z,2.28
2022-08-01T05:37:24.165Z,1.48
2022-08-01T05:38:25.975Z,2.05
2022-08-01T05:39:27.795Z,1.30
2022-08-01T05:40:29.491Z,0.63
2022-08-01T05:41:31.681Z,1.48
2022-08-01T05:42:33.584Z,2.08
2022-08-01T05:43:35.296Z,3.45
2022-08-01T05:44:37.445Z,4.03
2022-08-01T05:45:39.338Z,1.45
2022-08-01T05:46:41.168Z,5.68
2022-08-01T05:47:43.247Z,1.95
2022-08-01T05:48:45.242Z,1.20
2022-08-01T05:49:47.340Z,0.73
2022-08-01T05:50:49.130Z,2.22
2022-08-01T05:51:50.871Z,2.33
2022-08-01T05:52:52.757Z,1.05
2022-08-01T05:53:54.964Z,2.55
2022-08-01T05:54:56.676Z,1.42
2022-08-01T05:55:58.430Z,1.05
2022-08-01T05:57:03.031Z,1.05
2022-08-01T05:58:04.765Z,0.90
2022-08-01T05:59:06.794Z,0.80
2022-08-01T06:00:09.301Z,0.73
2022-08-01T06:01:11.501Z,0.90
2022-08-01T06:02:13.421Z,1.30
2022-08-01T06:03:15.452Z,0.60
2022-08-01T06:04:17.377Z,0.80
2022-08-01T06:05:19.252Z,0.60
2022-08-01T06:06:25.402Z,0.50
2022-08-01T06:07:27.572Z,0.80
2022-08-01T06:08:29.954Z,0.77
2022-08-01T06:09:32.069Z,0.73
2022-08-01T06:10:33.814Z,2.10
2022-08-01T06:11:35.606Z,0.85
2022-08-01T06:12:38.002Z,1.00
2022-08-01T06:13:45.625Z,1.35
2022-08-01T06:14:50.685Z,0.70
2022-08-01T06:15:52.508Z,3.45
2022-08-01T06:16:54.469Z,0.80
2022-08-01T06:17:56.617Z,1.65
2022-08-01T06:18:58.434Z,0.90
2022-08-01T06:20:01.166Z,2.58
2022-08-01T06:21:03.220Z,2.05
2022-08-01T06:22:05.179Z,1.13
2022-08-01T06:23:24.613Z,1.83
2022-08-01T06:24:29.088Z,1.65
2022-08-01T06:25:31.196Z,1.88
2022-08-01T06:26:33.386Z,0.80
2022-08-01T06:27:36.536Z,4.80
2022-08-01T06:28:40.052Z,1.70
2022-08-01T06:29:53.620Z,4.85
2022-08-01T06:30:56.414Z,2.05
2022-08-01T06:31:58.173Z,1.58
2022-08-01T06:33:01.167Z,0.88
2022-08-01T06:34:03.123Z,0.75
2022-08-01T06:35:07.426Z,1.08
2022-08-01T06:36:10.372Z,0.93
2022-08-01T06:37:15.051Z,0.77
2022-08-01T06:38:17.367Z,2.92
2022-08-01T06:39:19.298Z,3.10
2022-08-01T06:40:21.490Z,0.80
2022-08-01T06:41:23.598Z,0.93
2022-08-01T06:42:26.569Z,2.70
2022-08-01T06:43:28.905Z,1.83
2022-08-01T06:44:30.802Z,1.25
2022-08-01T06:45:32.763Z,1.63
2022-08-01T06:46:35.969Z,1.92
2022-08-01T06:47:39.177Z,1.30
2022-08-01T06:48:41.423Z,1.23
2022-08-01T06:49:43.432Z,2.30
2022-08-01T06:50:45.247Z,1.50
2022-08-01T06:51:47.204Z,1.17
2022-08-01T06:52:49.125Z,1.17
2022-08-01T06:53:51.032Z,2.05
2022-08-01T06:54:53.992Z,1.42
2022-08-01T06:55:56.417Z,0.80
2022-08-01T06:56:58.574Z,1.25
2022-08-01T06:58:00.553Z,1.75
2022-08-01T06:59:04.915Z,2.90
2022-08-01T07:00:12.974Z,1.17
2022-08-01T07:01:14.920Z,1.30
2022-08-01T07:02:19.661Z,1.95
2022-08-01T07:03:25.711Z,1.52
2022-08-01T07:04:30.141Z,1.15
2022-08-01T07:05:32.326Z,1.92
2022-08-01T07:06:36.852Z,1.05
2022-08-01T07:07:38.833Z,0.85
2022-08-01T07:08:41.125Z,0.90
2022-08-01T07:09:45.123Z,0.82
2022-08-01T07:10:53.934Z,2.78
2022-08-01T07:12:06.610Z,0.80
2022-08-01T07:13:08.865Z,1.63
2022-08-01T07:14:14.764Z,0.80
2022-08-01T07:16:46.173Z,1.83
2022-08-01T07:17:51.531Z,1.92
2022-08-01T07:18:58.814Z,1.15
2022-08-01T07:20:03.450Z,1.45
2022-08-01T07:21:16.661Z,1.23
2022-08-01T07:22:30.480Z,2.80
2022-08-01T07:23:36.633Z,1.42
2022-08-01T07:24:45.942Z,1.27
2022-08-01T07:25:58.099Z,2.45
2022-08-01T07:27:23.786Z,1.45
2022-08-01T07:28:27.977Z,1.17
2022-08-01T07:29:40.735Z,1.90
2022-08-01T07:30:55.289Z,2.42
2022-08-01T07:32:17.507Z,2.40
2022-08-01T07:34:06.706Z,1.10
2022-08-01T07:35:12.085Z,1.40
2022-08-01T07:36:14.309Z,2.40
2022-08-01T07:37:45.505Z,1.63
2022-08-01T07:38:52.746Z,2.17
2022-08-01T07:39:54.653Z,2.38
2022-08-01T07:40:58.320Z,1.48
2022-08-01T07:42:07.289Z,1.65
2022-08-01T07:43:10.528Z,1.40
2022-08-01T07:44:12.776Z,2.17
2022-08-01T07:45:16.211Z,1.45
2022-08-01T07:46:21.064Z,3.55
2022-08-01T07:47:27.444Z,1.55
2022-08-01T07:48:30.012Z,1.60
2022-08-01T07:49:36.224Z,1.30
2022-08-01T07:50:41.864Z,1.30
2022-08-01T07:52:03.989Z,1.58
2022-08-01T07:53:06.533Z,1.77
2022-08-01T07:54:08.861Z,2.50
2022-08-01T07:55:16.242Z,1.33
2022-08-01T07:56:18.569Z,1.88
2022-08-01T07:57:20.787Z,1.30
2022-08-01T07:58:22.920Z,1.60
2022-08-01T07:59:31.185Z,1.70
2022-08-01T08:00:33.187Z,2.22
2022-08-01T08:01:37.221Z,1.88
2022-08-01T08:02:39.089Z,2.22
2022-08-01T08:03:40.993Z,1.60
2022-08-01T08:04:47.098Z,1.35
2022-08-01T08:05:59.639Z,4.65
2022-08-01T08:07:02.615Z,1.50
2022-08-01T08:08:08.567Z,1.92
2022-08-01T08:09:11.026Z,2.65
2022-08-01T08:10:13.337Z,2.30
2022-08-01T08:11:15.793Z,1.60
2022-08-01T08:12:28.645Z,2.05
2022-08-01T08:13:37.849Z,2.00
2022-08-01T08:14:43.004Z,2.00
2022-08-01T08:15:50.123Z,2.45
2022-08-01T08:16:56.098Z,1.60
2022-08-01T08:18:01.024Z,2.00
2022-08-01T08:19:05.763Z,4.38
2022-08-01T08:20:11.024Z,2.00
2022-08-01T08:21:20.189Z,4.85
2022-08-01T08:22:22.154Z,3.47
2022-08-01T08:23:44.182Z,4.07
2022-08-01T08:24:47.060Z,2.97
2022-08-01T08:25:54.405Z,2.10
2022-08-01T08:26:58.657Z,2.63
2022-08-01T08:28:00.793Z,2.35
2022-08-01T08:29:05.681Z,2.50
2022-08-01T08:30:27.765Z,4.22
2022-08-01T08:31:51.302Z,2.72
2022-08-01T08:32:55.578Z,6.68
2022-08-01T08:33:57.638Z,2.17
2022-08-01T08:34:59.558Z,2.95
2022-08-01T08:36:31.356Z,5.63
2022-08-01T08:37:47.540Z,2.95
2022-08-01T08:38:51.241Z,2.40
2022-08-01T08:39:53.612Z,1.40
2022-08-01T08:40:56.767Z,1.90
2022-08-01T08:42:01.227Z,1.83
2022-08-01T08:43:05.443Z,2.53
2022-08-01T08:44:10.527Z,2.70
2022-08-01T08:45:13.333Z,3.00
2022-08-01T08:46:18.000Z,1.58
2022-08-01T08:47:33.851Z,1.90
2022-08-01T08:48:37.987Z,2.45
2022-08-01T08:49:40.258Z,2.58
2022-08-01T08:50:48.304Z,1.95
2022-08-01T08:51:52.235Z,1.67
2022-08-01T08:52:55.837Z,1.60
2022-08-01T08:53:58.819Z,1.98
2022-08-01T08:55:00.644Z,3.13
2022-08-01T08:56:03.596Z,4.85
2022-08-01T08:57:06.134Z,2.72
2022-08-01T08:58:07.974Z,2.50
2022-08-01T08:59:12.198Z,1.73
2022-08-01T09:00:15.310Z,2.25
2022-08-01T09:01:19.004Z,1.50
2022-08-01T09:02:24.938Z,2.08
2022-08-01T09:03:26.723Z,2.40
2022-08-01T09:04:28.810Z,1.20
2022-08-01T09:05:38.828Z,1.63
2022-08-01T09:06:41.683Z,2.88
2022-08-01T09:07:43.608Z,2.28
2022-08-01T09:08:45.495Z,3.00
2022-08-01T09:09:49.694Z,1.85
2022-08-01T09:10:51.640Z,1.40
2022-08-01T09:11:57.335Z,2.95
2022-08-01T09:13:11.878Z,1.77
2022-08-01T09:14:23.494Z,1.38
2022-08-01T09:15:43.329Z,1.67
2022-08-01T09:16:48.797Z,1.75
2022-08-01T09:17:51.304Z,2.97
2022-08-01T09:18:53.762Z,1.30
2022-08-01T09:19:57.840Z,2.25
2022-08-01T09:21:07.001Z,1.50
2022-08-01T09:22:13.674Z,1.27
2022-08-01T09:23:36.069Z,2.58
2022-08-01T09:24:38.946Z,1.58
2022-08-01T09:26:01.184Z,1.70
2022-08-01T09:27:22.045Z,1.52
2022-08-01T09:28:31.023Z,1.55
2022-08-01T09:29:37.774Z,1.38
2022-08-01T09:30:43.561Z,1.20
2022-08-01T09:31:47.641Z,3.42
2022-08-01T09:33:11.148Z,1.88
2022-08-01T09:34:15.729Z,4.70
2022-08-01T09:35:29.957Z,1.70
2022-08-01T09:36:54.615Z,2.75
2022-08-01T09:38:21.776Z,1.50
2022-08-01T09:39:38.704Z,1.50
2022-08-01T09:40:47.968Z,1.83
2022-08-01T09:41:52.568Z,2.67
2022-08-01T09:43:12.982Z,3.72
2022-08-01T09:44:19.148Z,2.00
2022-08-01T09:45:45.837Z,2.08
2022-08-01T09:46:54.850Z,1.42
2022-08-01T09:47:56.845Z,2.85
2022-08-01T09:49:02.204Z,2.75
2022-08-01T09:50:11.256Z,1.42
2022-08-01T09:51:14.139Z,1.92
2022-08-01T09:52:36.080Z,2.30
2022-08-01T09:53:51.068Z,1.63
2022-08-01T09:54:59.383Z,2.05
2022-08-01T09:56:11.858Z,1.65
2022-08-01T09:57:18.950Z,1.40
2022-08-01T09:58:21.778Z,1.63
2022-08-01T09:59:57.063Z,1.90
2022-08-01T10:01:05.349Z,2.10
2022-08-01T10:02:08.232Z,2.42
2022-08-01T10:03:24.232Z,2.08
2022-08-01T10:04:26.382Z,2.42
2022-08-01T10:05:37.234Z,2.13
2022-08-01T10:08:00.722Z,2.85
2022-08-01T10:09:02.544Z,1.63
2022-08-01T10:10:14.893Z,1.90
2022-08-01T10:11:17.473Z,1.73
2022-08-01T10:12:21.368Z,1.55
2022-08-01T10:13:23.185Z,1.38
2022-08-01T10:14:27.651Z,1.60
2022-08-01T10:15:37.322Z,1.70
2022-08-01T10:16:40.565Z,1.55
2022-08-01T10:17:51.335Z,1.92
2022-08-01T10:18:54.969Z,1.88
2022-08-01T10:20:00.922Z,1.90
2022-08-01T10:21:08.904Z,2.17
2022-08-01T10:22:17.448Z,1.83
2022-08-01T10:23:20.180Z,2.47
2022-08-01T10:24:23.203Z,2.58
2022-08-01T10:25:43.411Z,2.30
2022-08-01T10:26:49.069Z,2.33
2022-08-01T10:27:57.596Z,4.47
2022-08-01T10:28:59.477Z,4.65
2022-08-01T10:30:14.019Z,3.63
2022-08-01T10:31:30.826Z,3.90
2022-08-01T10:32:36.049Z,3.55
2022-08-01T10:33:50.794Z,2.03
2022-08-01T10:34:57.937Z,2.83
2022-08-01T10:36:00.337Z,3.20
2022-08-01T10:37:05.373Z,2.50
2022-08-01T10:38:10.850Z,2.95
2022-08-01T10:39:15.763Z,5.72
2022-08-01T10:40:31.027Z,3.15
2022-08-01T10:41:35.592Z,3.22
2022-08-01T10:42:37.775Z,4.93
2022-08-01T10:43:39.951Z,3.17
2022-08-01T10:44:49.060Z,2.80
2022-08-01T10:45:51.918Z,4.10
2022-08-01T10:47:02.621Z,3.20
2022-08-01T10:48:11.543Z,3.45
2022-08-01T10:49:17.774Z,3.08
2022-08-01T10:50:32.731Z,3.63
2022-08-01T10:51:52.696Z,2.20
2022-08-01T10:53:23.982Z,4.90
2022-08-01T10:54:40.775Z,2.45
2022-08-01T10:55:57.205Z,2.93
2022-08-01T10:57:01.303Z,4.63
2022-08-01T10:58:09.036Z,4.07
2022-08-01T10:59:49.391Z,4.38
2022-08-01T11:00:49.954Z,5.80
2022-08-01T11:02:32.262Z,3.13
2022-08-01T11:03:56.142Z,4.72
2022-08-01T11:05:00.969Z,2.65
2022-08-01T11:06:04.793Z,2.15
2022-08-01T11:07:10.136Z,4.72
2022-08-01T11:08:23.098Z,3.78
2022-08-01T11:09:36.043Z,5.85
2022-08-01T11:10:46.632Z,3.00
2022-08-01T11:12:13.110Z,2.78
2022-08-01T11:13:36.155Z,1.80
2022-08-01T11:15:00.284Z,1.73
2022-08-01T11:16:28.334Z,2.72
2022-08-01T11:17:38.109Z,2.25
2022-08-01T11:18:52.277Z,5.00
2022-08-01T11:20:14.355Z,2.95
2022-08-01T11:21:57.496Z,3.00
2022-08-01T11:23:04.954Z,2.50
2022-08-01T11:24:06.906Z,2.67
2022-08-01T11:25:09.429Z,3.60
2022-08-01T11:26:13.597Z,4.38
2022-08-01T11:27:18.897Z,4.28
2022-08-01T11:28:32.083Z,7.00
2022-08-01T11:29:36.793Z,3.53
2022-08-01T11:30:39.036Z,2.53
2022-08-01T11:31:41.398Z,2.97
2022-08-01T11:33:11.394Z,2.97
2022-08-01T11:34:15.848Z,2.92
2022-08-01T11:35:19.264Z,3.83
2022-08-01T11:36:55.475Z,4.43
2022-08-01T11:37:45.963Z,3.83
2022-08-01T11:38:50.571Z,2.45
2022-08-01T11:40:22.936Z,3.28
2022-08-01T11:41:37.074Z,3.35
2022-08-01T11:42:41.200Z,3.75
2022-08-01T11:44:09.858Z,3.47
2022-08-01T11:45:18.081Z,4.18
2022-08-01T11:46:20.364Z,3.60
2022-08-01T11:47:44.493Z,2.25
2022-08-01T11:48:48.421Z,2.17
2022-08-01T11:49:57.213Z,2.03
2022-08-01T11:51:02.112Z,2.40
2022-08-01T11:52:08.511Z,3.03
2022-08-01T11:53:11.228Z,3.83
2022-08-01T11:54:13.872Z,2.60
2022-08-01T11:55:16.702Z,2.25
2022-08-01T11:56:19.830Z,2.63
2022-08-01T11:57:36.116Z,4.35
2022-08-01T11:58:38.121Z,3.97
2022-08-01T12:00:02.652Z,5.25
2022-08-01T12:01:06.705Z,5.20
2022-08-01T12:02:30.673Z,5.25
2022-08-01T12:03:34.597Z,2.88
2022-08-01T12:04:56.024Z,5.38
2022-08-01T12:05:58.478Z,3.88
2022-08-01T12:07:13.206Z,5.22
2022-08-01T12:08:34.483Z,6.20
2022-08-01T12:09:36.240Z,5.07
2022-08-01T12:10:47.211Z,5.40
2022-08-01T12:11:53.168Z,4.85
2022-08-01T12:13:00.423Z,3.78
2022-08-01T12:14:02.337Z,4.35
2022-08-01T12:15:07.697Z,4.13
2022-08-01T12:16:13.239Z,3.53
2022-08-01T12:17:15.101Z,3.03
2022-08-01T12:18:17.480Z,4.15
2022-08-01T12:19:23.641Z,4.00
2022-08-01T12:20:30.544Z,3.20
2022-08-01T12:21:32.709Z,2.88
2022-08-01T12:22:34.861Z,3.35
2022-08-01T12:23:36.609Z,3.70
2022-08-01T12:24:40.198Z,2.78
2022-08-01T12:25:44.837Z,2.25
2022-08-01T12:26:46.647Z,3.08
2022-08-01T12:27:52.147Z,2.67
2022-08-01T12:28:57.516Z,3.53
2022-08-01T12:30:02.153Z,4.72
2022-08-01T12:31:04.136Z,4.22
2022-08-01T12:32:27.587Z,4.78
2022-08-01T12:33:35.074Z,4.75
2022-08-01T12:34:37.191Z,4.10
2022-08-01T12:35:41.704Z,3.60
2022-08-01T12:36:43.634Z,4.32
2022-08-01T12:37:49.685Z,3.92
2022-08-01T12:38:54.460Z,3.50
2022-08-01T12:39:57.769Z,3.88
2022-08-01T12:40:59.584Z,3.38
2022-08-01T12:42:01.798Z,3.28
2022-08-01T12:43:15.855Z,3.58
2022-08-01T12:44:31.873Z,4.93
2022-08-01T12:45:56.404Z,3.70
2022-08-01T12:47:00.013Z,5.60
2022-08-01T12:48:03.077Z,4.05
2022-08-01T12:49:04.952Z,7.28
2022-08-01T12:50:12.518Z,5.20
2022-08-01T12:51:14.373Z,7.25
2022-08-01T12:52:18.353Z,13.70
2022-08-01T12:53:21.656Z,12.15
2022-08-01T12:54:28.895Z,14.32
2022-08-01T12:55:33.908Z,16.63
2022-08-01T12:56:36.861Z,19.88
2022-08-01T12:57:41.896Z,23.95
2022-08-01T12:58:43.613Z,20.90
2022-08-01T12:59:45.439Z,20.50
2022-08-01T13:00:49.943Z,19.60
2022-08-01T13:01:53.937Z,21.10
2022-08-01T13:03:21.469Z,18.05
2022-08-01T13:04:24.149Z,16.13
2022-08-01T13:05:26.592Z,13.38
2022-08-01T13:06:31.781Z,13.82
2022-08-01T13:07:51.908Z,15.10
2022-08-01T13:08:53.718Z,12.82
2022-08-01T13:09:55.538Z,11.57
2022-08-01T13:11:18.151Z,11.40
2022-08-01T13:12:20.206Z,10.48
2022-08-01T13:13:27.909Z,9.30
2022-08-01T13:14:31.103Z,8.07
2022-08-01T13:15:35.761Z,8.32
2022-08-01T13:16:56.836Z,8.57
2022-08-01T13:18:01.794Z,7.82
2022-08-01T13:19:03.539Z,7.85
2022-08-01T13:20:06.578Z,6.85
2022-08-01T13:21:26.226Z,6.90
2022-08-01T13:22:38.762Z,4.97
2022-08-01T13:24:03.686Z,5.57
2022-08-01T13:25:19.873Z,5.60
2022-08-01T13:26:38.688Z,5.30
2022-08-01T13:27:41.069Z,3.90
2022-08-01T13:29:09.152Z,3.85
2022-08-01T13:30:19.869Z,4.18
2022-08-01T13:31:33.530Z,2.95
2022-08-01T13:32:35.761Z,3.78
2022-08-01T13:33:46.137Z,3.05
2022-08-01T13:35:10.791Z,2.97
2022-08-01T13:36:13.826Z,4.05
2022-08-01T13:37:15.804Z,2.83
2022-08-01T13:38:18.341Z,3.42
2022-08-01T13:39:38.592Z,4.68
2022-08-01T13:40:40.472Z,3.00
2022-08-01T13:41:42.880Z,5.25
2022-08-01T13:42:44.862Z,4.60
2022-08-01T13:43:57.697Z,3.10
2022-08-01T13:45:01.300Z,3.17
2022-08-01T13:46:05.136Z,3.15
2022-08-01T13:47:15.503Z,2.80
2022-08-01T13:48:19.073Z,6.00
2022-08-01T13:49:22.746Z,4.55
2022-08-01T13:50:24.865Z,3.05
2022-08-01T13:51:26.687Z,3.05
2022-08-01T13:52:29.020Z,2.40
2022-08-01T13:53:31.293Z,2.33
2022-08-01T13:54:33.786Z,2.58
2022-08-01T13:55:35.763Z,2.40
2022-08-01T13:56:37.599Z,2.78
2022-08-01T13:57:39.786Z,2.97
2022-08-01T13:58:41.674Z,3.30
2022-08-01T13:59:43.464Z,2.40
2022-08-01T14:00:45.431Z,3.95
2022-08-01T14:01:47.663Z,2.13
2022-08-01T14:02:49.573Z,2.05
2022-08-01T14:03:55.017Z,2.47
2022-08-01T14:04:59.375Z,2.28
2022-08-01T14:06:02.461Z,2.88
2022-08-01T14:07:09.657Z,11.35
2022-08-01T14:08:12.936Z,6.60
2022-08-01T14:09:24.000Z,5.07
2022-08-01T14:10:26.402Z,4.15
2022-08-01T14:11:30.517Z,2.47
2022-08-01T14:13:45.241Z,3.45
2022-08-01T14:14:48.817Z,2.45
2022-08-01T14:15:51.155Z,2.38
2022-08-01T14:16:56.426Z,3.35
2022-08-01T14:17:58.891Z,2.30
2022-08-01T14:19:00.778Z,2.55
2022-08-01T14:20:06.794Z,2.17
2022-08-01T14:21:08.872Z,2.35
2022-08-01T14:22:10.578Z,2.10
2022-08-01T14:23:12.539Z,1.80
2022-08-01T14:24:14.310Z,4.38
2022-08-01T14:25:23.771Z,1.30
2022-08-01T14:26:38.339Z,2.78
2022-08-01T14:27:42.338Z,2.45
2022-08-01T14:28:44.028Z,1.85
2022-08-01T14:29:54.608Z,1.50
2022-08-01T14:31:07.120Z,2.05
2022-08-01T14:32:09.526Z,1.70
2022-08-01T14:33:12.636Z,2.28
2022-08-01T14:34:14.578Z,2.85
2022-08-01T14:35:16.550Z,3.35
2022-08-01T14:36:30.673Z,1.70
2022-08-01T14:37:38.243Z,1.75
2022-08-01T14:38:40.943Z,2.22
2022-08-01T14:39:53.326Z,2.22
2022-08-01T14:40:55.809Z,2.28
2022-08-01T14:41:58.361Z,1.95
2022-08-01T14:43:02.220Z,2.65
2022-08-01T14:44:05.286Z,1.55
2022-08-01T14:45:11.363Z,1.45
2022-08-01T14:46:14.359Z,1.70
2022-08-01T14:47:21.726Z,1.85
2022-08-01T14:48:24.172Z,3.22
2022-08-01T14:49:26.148Z,1.20
2022-08-01T14:50:29.048Z,1.40